Terminal Aerodrome Forecast
Issued by NWS

Home | Current Version | Previous Version | Text Only | Print | Product List | Glossary On
Versions: 1 2 3 4 5 6 7 8 9 10 11 12 13 14 15 16 17 18 19 20 21 22 23 24 25 26 27 28 29
000
FTUS42 KRAH 281731
TAFRWI
TAF
KRWI 281731Z 2818/2918 24010KT P6SM -RA SCT017 OVC025
      TEMPO 2818/2822 4SM -RA BKN017
     FM290000 26006KT P6SM SCT017 OVC035
     FM290600 35006KT 4SM -RA BR SCT007 OVC012
     FM291400 04009KT 2SM RA BR SCT004 OVC009=

USA.gov is the U.S. government's official web portal to all federal, state and local government web resources and services.